Time;durP1;ratioP1;P1;durP2;ratioP2;P2;SDS_P1;SDS_P2;PMS_P1;PMS_P2;Temp;Humidity;BMP_temperature;BMP_pressure;BME280_temperature;BME280_humidity;BME280_pressure;Samples;Min_cycle;Max_cycle;Signal;HPM_P1;HPM_P2
2022/05/19 00:02:12;;;;;;;0.62;0.62;;;17.50;97.40;;;;;;4396040;32;20525;-69
2022/05/19 00:04:38;;;;;;;0.57;0.57;;;17.50;98.00;;;;;;4408981;32;20457;-69
2022/05/19 00:07:05;;;;;;;0.60;0.60;;;17.60;97.10;;;;;;4424105;32;20419;-69
2022/05/19 00:09:31;;;;;;;0.80;0.80;;;17.60;97.90;;;;;;4423744;32;20089;-68
2022/05/19 00:11:59;;;;;;;0.55;0.55;;;17.50;98.20;;;;;;4424350;32;20065;-69
2022/05/19 00:14:25;;;;;;;0.77;0.70;;;17.30;98.30;;;;;;4428777;32;20069;-69
2022/05/19 00:16:51;;;;;;;1.08;0.95;;;17.30;98.90;;;;;;4420747;32;20081;-69
2022/05/19 00:19:18;;;;;;;3.97;1.17;;;17.20;98.90;;;;;;4427322;32;20073;-69
2022/05/19 00:21:44;;;;;;;1.45;0.75;;;17.20;99.30;;;;;;4429669;32;20073;-69
2022/05/19 00:24:10;;;;;;;0.40;0.40;;;17.20;99.30;;;;;;4427666;32;20054;-69
2022/05/19 00:26:36;;;;;;;3.58;0.73;;;17.20;99.00;;;;;;4424874;32;20513;-69
2022/05/19 00:29:02;;;;;;;0.50;0.32;;;17.20;99.50;;;;;;4407676;32;20065;-69
2022/05/19 00:31:29;;;;;;;1.08;0.68;;;17.20;99.30;;;;;;4407303;32;20350;-69
2022/05/19 00:33:55;;;;;;;0.75;0.75;;;17.20;99.50;;;;;;4407320;32;20105;-69
2022/05/19 00:36:21;;;;;;;0.62;0.62;;;17.10;99.80;;;;;;4422618;32;20081;-69
2022/05/19 00:38:47;;;;;;;0.60;0.60;;;17.10;99.90;;;;;;4423717;32;20148;-69
2022/05/19 00:41:14;;;;;;;1.10;0.80;;;17.00;99.90;;;;;;4425976;32;20947;-69
2022/05/19 00:43:43;;;;;;;0.70;0.70;;;17.00;99.90;;;;;;4425391;32;20153;-69
2022/05/19 00:46:18;;;;;;;1.73;0.70;;;17.10;99.90;;;;;;4423682;32;20094;-69
2022/05/19 00:48:52;;;;;;;0.98;0.50;;;17.00;99.90;;;;;;4422299;32;20508;-69
2022/05/19 00:51:21;;;;;;;0.60;0.60;;;16.90;99.90;;;;;;4425413;32;20100;-69
2022/05/19 00:53:51;;;;;;;0.50;0.50;;;16.90;99.90;;;;;;4423479;32;20074;-69
2022/05/19 00:56:23;;;;;;;2.78;1.42;;;16.80;99.90;;;;;;4424165;32;20128;-69
2022/05/19 00:59:09;;;;;;;0.62;0.62;;;16.80;99.90;;;;;;4408963;32;20081;-69
2022/05/19 01:01:38;;;;;;;2.00;0.57;;;16.70;99.90;;;;;;4398456;32;20066;-69
2022/05/19 01:04:13;;;;;;;0.43;0.43;;;16.70;99.90;;;;;;4410755;32;20584;-68
2022/05/19 01:06:41;;;;;;;0.47;0.47;;;16.70;99.90;;;;;;4422179;32;20501;-69
2022/05/19 01:09:12;;;;;;;0.60;0.60;;;16.80;99.90;;;;;;4422035;32;20074;-69
2022/05/19 01:11:38;;;;;;;0.32;0.32;;;16.80;99.90;;;;;;4425465;32;20073;-68
2022/05/19 01:14:05;;;;;;;0.57;0.57;;;16.70;99.90;;;;;;4424669;32;20066;-68
2022/05/19 01:16:31;;;;;;;11.52;1.00;;;16.70;99.90;;;;;;4418759;32;20498;-68
2022/05/19 01:18:57;;;;;;;0.40;0.40;;;16.60;99.90;;;;;;4423788;32;20128;-69
2022/05/19 01:21:27;;;;;;;0.40;0.40;;;16.60;99.90;;;;;;4424614;32;20132;-68
2022/05/19 01:24:12;;;;;;;8.50;2.47;;;16.60;99.90;;;;;;4419955;32;20065;-68
2022/05/19 01:26:44;;;;;;;1.42;0.68;;;16.60;99.90;;;;;;4411391;32;20166;-68
2022/05/19 01:29:13;;;;;;;0.62;0.62;;;16.50;99.90;;;;;;4404272;32;20806;-68
2022/05/19 01:31:47;;;;;;;1.27;0.88;;;16.40;99.90;;;;;;4406264;32;20175;-69
2022/05/19 01:34:13;;;;;;;1.27;0.65;;;16.40;99.90;;;;;;4408504;32;20049;-70
2022/05/19 01:36:39;;;;;;;2.28;1.27;;;16.40;99.90;;;;;;4421180;32;20085;-70
2022/05/19 01:39:12;;;;;;;0.80;0.80;;;16.30;99.90;;;;;;4424128;32;20548;-71
2022/05/19 01:41:46;;;;;;;0.50;0.50;;;16.20;99.90;;;;;;4424238;32;20061;-70
2022/05/19 01:44:48;;;;;;;0.40;0.40;;;16.20;99.90;;;;;;4421229;32;20073;-69
2022/05/19 01:47:37;;;;;;;1.10;0.98;;;16.20;99.90;;;;;;4409176;32;20065;-69
2022/05/19 01:50:08;;;;;;;0.93;0.65;;;16.20;99.90;;;;;;4424725;32;20081;-69
2022/05/19 01:52:44;;;;;;;2.00;0.65;;;16.20;99.90;;;;;;4426002;32;20081;-70
2022/05/19 01:55:33;;;;;;;0.65;0.65;;;16.20;99.90;;;;;;4426450;32;20073;-70
2022/05/19 01:58:08;;;;;;;5.87;1.80;;;16.20;99.90;;;;;;4405185;32;20101;-70
2022/05/19 02:00:34;;;;;;;1.77;1.37;;;16.10;99.90;;;;;;4406834;32;20632;-70
2022/05/19 02:03:13;;;;;;;0.90;0.90;;;16.10;99.90;;;;;;4414905;32;20065;-70
2022/05/19 02:05:51;;;;;;;1.17;0.52;;;15.90;99.90;;;;;;4415981;32;20069;-69
2022/05/19 02:08:25;;;;;;;0.40;0.40;;;15.90;99.90;;;;;;4428119;32;20085;-69
2022/05/19 02:10:55;;;;;;;0.50;0.50;;;15.90;99.90;;;;;;4426863;32;20065;-69
2022/05/19 02:13:22;;;;;;;0.50;0.50;;;15.90;99.90;;;;;;4428527;32;20123;-70
2022/05/19 02:15:51;;;;;;;1.33;0.82;;;15.90;99.90;;;;;;4428263;32;20086;-70
2022/05/19 02:18:20;;;;;;;0.60;0.60;;;16.00;99.90;;;;;;4421564;32;20410;-70
2022/05/19 02:20:46;;;;;;;1.37;0.82;;;16.10;99.90;;;;;;4429148;32;20116;-69
2022/05/19 02:23:15;;;;;;;0.60;0.57;;;16.10;99.90;;;;;;4424929;32;20102;-69
2022/05/19 02:25:43;;;;;;;0.50;0.50;;;16.20;99.90;;;;;;4428133;32;20085;-69
2022/05/19 02:28:14;;;;;;;0.55;0.55;;;16.20;99.90;;;;;;4416057;32;20092;-69
2022/05/19 02:30:41;;;;;;;0.50;0.50;;;16.10;99.90;;;;;;4406994;32;20124;-69
2022/05/19 02:33:08;;;;;;;0.75;0.60;;;16.10;99.90;;;;;;4410119;32;20136;-69
2022/05/19 02:35:34;;;;;;;0.80;0.80;;;16.00;99.90;;;;;;4415579;32;20065;-69
2022/05/19 02:38:00;;;;;;;0.80;0.77;;;16.00;99.90;;;;;;4422745;32;20136;-69
2022/05/19 02:40:33;;;;;;;2.42;1.08;;;15.90;99.90;;;;;;4427141;32;20123;-69
2022/05/19 02:43:00;;;;;;;0.62;0.60;;;15.80;99.90;;;;;;4425702;32;20156;-69
2022/05/19 02:45:26;;;;;;;0.98;0.60;;;15.70;99.90;;;;;;4425814;32;20062;-69
2022/05/19 02:47:51;;;;;;;0.68;0.60;;;15.60;99.90;;;;;;4423275;32;20431;-69
2022/05/19 02:50:19;;;;;;;0.55;0.55;;;15.70;99.90;;;;;;4426322;32;20123;-70
2022/05/19 02:52:45;;;;;;;0.40;0.40;;;15.60;99.90;;;;;;4429089;32;20065;-68
2022/05/19 02:55:11;;;;;;;0.57;0.55;;;15.70;99.90;;;;;;4426102;32;20132;-70
2022/05/19 02:57:37;;;;;;;0.68;0.68;;;15.70;99.90;;;;;;4421658;32;20594;-70
2022/05/19 03:00:06;;;;;;;0.30;0.30;;;15.70;99.90;;;;;;4407012;32;20097;-68
2022/05/19 03:02:32;;;;;;;0.40;0.40;;;15.60;99.90;;;;;;4409782;32;20086;-71
2022/05/19 03:04:58;;;;;;;2.22;1.27;;;15.50;99.90;;;;;;4415238;32;20066;-68
2022/05/19 03:07:24;;;;;;;1.33;1.10;;;15.50;99.90;;;;;;4426097;32;20089;-69
2022/05/19 03:09:50;;;;;;;0.30;0.30;;;15.60;99.90;;;;;;4427048;32;20105;-69
2022/05/19 03:12:15;;;;;;;5.43;1.17;;;15.50;99.90;;;;;;4428152;32;20800;-68
2022/05/19 03:14:41;;;;;;;0.55;0.55;;;15.40;99.90;;;;;;4424206;32;20074;-69
2022/05/19 03:17:09;;;;;;;0.60;0.60;;;15.50;99.90;;;;;;4421170;32;20077;-69
2022/05/19 03:19:35;;;;;;;0.52;0.52;;;15.50;99.90;;;;;;4425821;32;20069;-69
2022/05/19 03:22:02;;;;;;;0.77;0.50;;;15.40;99.90;;;;;;4427296;32;20386;-69
2022/05/19 03:24:27;;;;;;;1.30;0.95;;;15.40;99.90;;;;;;4421581;32;20476;-70
2022/05/19 03:26:53;;;;;;;0.60;0.60;;;15.40;99.90;;;;;;4427350;32;20073;-70
2022/05/19 03:29:19;;;;;;;1.08;0.95;;;15.30;99.90;;;;;;4409288;32;20084;-70
2022/05/19 03:31:44;;;;;;;17.17;1.27;;;15.30;99.90;;;;;;4410538;32;20524;-70
2022/05/19 03:34:10;;;;;;;0.73;0.60;;;15.30;99.90;;;;;;4409746;32;20341;-70
2022/05/19 03:36:36;;;;;;;0.52;0.52;;;15.20;99.90;;;;;;4424771;32;20073;-69
2022/05/19 03:39:02;;;;;;;6.07;0.52;;;15.20;99.90;;;;;;4425916;32;20064;-69
2022/05/19 03:41:27;;;;;;;0.57;0.57;;;15.20;99.90;;;;;;4427507;32;20065;-69
2022/05/19 03:43:53;;;;;;;0.98;0.73;;;15.20;99.90;;;;;;4427139;32;20148;-69
2022/05/19 03:46:19;;;;;;;1.37;0.75;;;15.30;99.90;;;;;;4422999;32;20565;-70
2022/05/19 03:48:45;;;;;;;4.70;0.70;;;15.30;99.90;;;;;;4423435;32;20089;-70
2022/05/19 03:51:15;;;;;;;0.45;0.45;;;15.30;99.90;;;;;;4426129;32;20504;-70
2022/05/19 03:53:41;;;;;;;2.20;0.75;;;15.30;99.90;;;;;;4426326;32;20069;-70
2022/05/19 03:56:06;;;;;;;4.37;1.12;;;15.20;99.90;;;;;;4425051;32;20061;-69
2022/05/19 03:58:32;;;;;;;6.25;0.80;;;15.10;99.90;;;;;;4413753;32;20107;-70
2022/05/19 04:00:57;;;;;;;0.55;0.55;;;15.10;99.90;;;;;;4403386;32;20224;-70
2022/05/19 04:03:23;;;;;;;0.80;0.68;;;15.20;99.90;;;;;;4410561;32;20085;-70
2022/05/19 04:05:48;;;;;;;3.03;1.60;;;15.30;99.90;;;;;;4418000;32;20082;-70
2022/05/19 04:08:14;;;;;;;0.50;0.50;;;15.30;99.90;;;;;;4423734;32;20090;-68
2022/05/19 04:10:44;;;;;;;0.40;0.40;;;15.30;99.90;;;;;;4424324;32;20069;-70
2022/05/19 04:13:10;;;;;;;0.70;0.70;;;15.20;99.90;;;;;;4427370;32;20845;-70
2022/05/19 04:15:35;;;;;;;0.77;0.50;;;15.20;99.90;;;;;;4429137;32;20066;-70
2022/05/19 04:18:01;;;;;;;0.50;0.50;;;15.30;99.90;;;;;;4418798;32;20387;-70
2022/05/19 04:20:30;;;;;;;0.60;0.60;;;15.30;99.90;;;;;;4419967;32;20136;-70
2022/05/19 04:22:57;;;;;;;0.40;0.40;;;15.30;99.90;;;;;;4391494;32;20595;-70
2022/05/19 04:25:23;;;;;;;0.47;0.47;;;15.30;99.90;;;;;;4383685;32;20089;-70
2022/05/19 04:27:48;;;;;;;0.80;0.75;;;15.40;99.90;;;;;;4373359;32;20506;-70
2022/05/19 04:30:14;;;;;;;1.52;0.75;;;15.40;99.90;;;;;;4366894;32;20677;-70
2022/05/19 04:32:40;;;;;;;0.40;0.40;;;15.30;99.90;;;;;;4367193;32;20224;-70
2022/05/19 04:35:06;;;;;;;0.50;0.50;;;15.30;99.90;;;;;;4394474;32;20077;-70
2022/05/19 04:37:31;;;;;;;0.60;0.60;;;15.30;99.90;;;;;;4421079;32;20117;-70
2022/05/19 04:40:00;;;;;;;0.35;0.35;;;15.30;99.90;;;;;;4423395;32;20120;-70
2022/05/19 04:42:25;;;;;;;0.43;0.43;;;15.30;99.90;;;;;;4423179;32;20131;-70
2022/05/19 04:44:54;;;;;;;0.57;0.57;;;15.30;99.90;;;;;;4422652;32;20446;-69
2022/05/19 04:47:19;;;;;;;0.60;0.60;;;15.40;99.90;;;;;;4421801;32;20074;-70
2022/05/19 04:49:44;;;;;;;2.15;1.15;;;15.40;99.90;;;;;;4424468;32;20135;-70
2022/05/19 04:52:10;;;;;;;0.62;0.60;;;15.50;99.90;;;;;;4411074;32;20163;-70
2022/05/19 04:54:35;;;;;;;0.45;0.45;;;15.60;99.90;;;;;;4374663;32;20473;-70
2022/05/19 04:57:01;;;;;;;0.60;0.60;;;15.60;99.90;;;;;;4407643;32;20074;-70
2022/05/19 04:59:26;;;;;;;0.55;0.55;;;15.70;99.90;;;;;;4404171;32;20128;-70
2022/05/19 05:01:52;;;;;;;0.62;0.50;;;15.80;99.90;;;;;;4397277;32;20116;-69
2022/05/19 05:04:19;;;;;;;0.70;0.70;;;15.80;99.90;;;;;;4377262;32;20396;-70
2022/05/19 05:06:45;;;;;;;0.40;0.40;;;15.90;99.90;;;;;;4378332;32;20080;-70
2022/05/19 05:09:11;;;;;;;1.12;0.73;;;16.00;99.90;;;;;;4369792;32;20139;-70
2022/05/19 05:11:39;;;;;;;6.20;2.15;;;16.10;99.90;;;;;;4372413;32;20073;-69
2022/05/19 05:14:05;;;;;;;0.52;0.52;;;16.30;99.90;;;;;;4368525;32;20349;-68
2022/05/19 05:16:30;;;;;;;0.88;0.70;;;16.40;99.90;;;;;;4383832;32;20076;-69
2022/05/19 05:18:55;;;;;;;1.12;0.60;;;16.60;99.90;;;;;;4338614;32;21028;-69
2022/05/19 05:21:21;;;;;;;2.58;0.62;;;16.80;99.90;;;;;;4338262;32;20089;-69
2022/05/19 05:23:47;;;;;;;0.60;0.60;;;16.80;99.90;;;;;;4316175;32;20329;-69
2022/05/19 05:26:12;;;;;;;1.75;1.00;;;16.90;99.90;;;;;;4317133;32;20122;-71
2022/05/19 05:28:38;;;;;;;0.62;0.62;;;16.90;99.90;;;;;;4329338;32;20734;-70
2022/05/19 05:31:04;;;;;;;0.40;0.40;;;17.00;99.90;;;;;;4315640;32;20364;-70
2022/05/19 05:33:29;;;;;;;0.55;0.55;;;17.00;99.90;;;;;;4351657;32;20269;-69
2022/05/19 05:35:55;;;;;;;0.75;0.75;;;17.00;99.90;;;;;;4340216;32;20185;-69
2022/05/19 05:38:21;;;;;;;3.95;1.48;;;17.10;99.90;;;;;;4334017;32;20582;-69
2022/05/19 05:40:50;;;;;;;5.68;0.80;;;17.10;99.90;;;;;;4353149;32;20481;-69
2022/05/19 05:43:17;;;;;;;0.40;0.40;;;17.10;99.90;;;;;;4354249;32;20158;-68
2022/05/19 05:45:43;;;;;;;0.65;0.65;;;17.10;99.90;;;;;;4382267;32;20665;-69
2022/05/19 05:48:09;;;;;;;0.62;0.62;;;17.20;99.90;;;;;;4393702;32;20114;-70
2022/05/19 05:50:35;;;;;;;0.47;0.47;;;17.30;99.90;;;;;;4381815;32;20080;-69
2022/05/19 05:53:01;;;;;;;0.52;0.50;;;17.40;99.90;;;;;;4390326;32;20701;-69
2022/05/19 05:55:26;;;;;;;0.40;0.40;;;17.50;99.90;;;;;;4379416;32;20086;-69
2022/05/19 05:57:52;;;;;;;0.60;0.60;;;17.60;99.90;;;;;;4379019;32;20137;-69
2022/05/19 06:00:18;;;;;;;0.60;0.60;;;17.70;99.90;;;;;;4370709;32;20093;-69
2022/05/19 06:02:44;;;;;;;1.10;0.95;;;17.70;99.90;;;;;;4365235;32;20923;-69
2022/05/19 06:05:11;;;;;;;0.43;0.43;;;17.70;99.90;;;;;;4349164;32;20491;-71
2022/05/19 06:07:37;;;;;;;1.27;0.95;;;17.70;99.90;;;;;;4370794;32;20547;-71
2022/05/19 06:10:03;;;;;;;1.30;1.10;;;17.70;99.90;;;;;;4376078;32;21234;-70
2022/05/19 06:12:28;;;;;;;0.85;0.73;;;17.70;99.90;;;;;;4377870;32;20594;-70
2022/05/19 06:14:56;;;;;;;0.65;0.57;;;17.80;99.90;;;;;;4372853;32;20130;-70
2022/05/19 06:17:22;;;;;;;0.50;0.50;;;17.90;99.90;;;;;;4365639;32;20503;-70
2022/05/19 06:19:48;;;;;;;0.75;0.73;;;18.00;99.90;;;;;;4352527;32;20141;-70
2022/05/19 06:22:13;;;;;;;0.60;0.60;;;18.20;99.90;;;;;;4359631;32;20822;-71
2022/05/19 06:24:39;;;;;;;0.50;0.50;;;18.40;99.90;;;;;;4371181;32;20142;-71
2022/05/19 06:27:05;;;;;;;0.60;0.60;;;18.40;99.90;;;;;;4375189;32;21657;-70
2022/05/19 06:29:31;;;;;;;2.45;1.25;;;18.40;99.90;;;;;;4369461;32;20112;-71
2022/05/19 06:31:56;;;;;;;0.37;0.37;;;18.40;99.90;;;;;;4360274;32;20237;-71
2022/05/19 06:34:21;;;;;;;3.53;0.55;;;18.50;99.90;;;;;;4343630;32;20093;-71
2022/05/19 06:36:47;;;;;;;1.25;1.15;;;18.70;99.90;;;;;;4341109;32;20200;-71
2022/05/19 06:39:16;;;;;;;0.95;0.70;;;18.70;99.90;;;;;;4374463;32;20650;-71
2022/05/19 06:42:42;;;;;;;0.50;0.50;;;18.70;99.90;;;;;;4370472;32;20089;-71
2022/05/19 06:44:31;;;;;;;1.25;0.73;;;18.80;99.90;;;;;;4357602;32;20462;-71
2022/05/19 06:46:57;;;;;;;0.40;0.40;;;18.90;99.90;;;;;;4371265;32;21542;-71
2022/05/19 06:49:22;;;;;;;0.68;0.68;;;19.00;99.90;;;;;;4356559;32;20324;-70
2022/05/19 06:51:48;;;;;;;0.40;0.40;;;19.20;99.90;;;;;;4368710;32;20634;-72
2022/05/19 06:54:14;;;;;;;0.40;0.40;;;19.20;99.90;;;;;;4379666;32;20259;-70
2022/05/19 06:56:39;;;;;;;0.65;0.50;;;19.20;99.90;;;;;;4381978;32;20321;-71
2022/05/19 06:59:05;;;;;;;0.45;0.45;;;19.20;99.90;;;;;;4362892;32;20277;-71
2022/05/19 07:01:31;;;;;;;0.95;0.75;;;19.30;99.90;;;;;;4357254;32;20919;-71
2022/05/19 07:03:56;;;;;;;0.50;0.50;;;19.50;99.90;;;;;;4341761;32;20102;-70
2022/05/19 07:06:22;;;;;;;0.55;0.55;;;19.50;99.90;;;;;;4352746;32;20258;-71
2022/05/19 07:08:48;;;;;;;0.50;0.50;;;19.60;99.90;;;;;;4375984;32;20604;-71
2022/05/19 07:11:29;;;;;;;0.50;0.50;;;19.70;99.90;;;;;;4377726;32;20200;-71
2022/05/19 07:13:58;;;;;;;0.62;0.57;;;19.80;99.90;;;;;;4379466;32;20217;-71
2022/05/19 07:16:23;;;;;;;1.25;0.93;;;19.90;99.90;;;;;;4374318;32;20393;-71
2022/05/19 07:18:49;;;;;;;0.60;0.60;;;19.80;99.90;;;;;;4371247;32;20761;-71
2022/05/19 07:21:18;;;;;;;0.65;0.65;;;19.80;99.90;;;;;;4358321;32;20121;-71
2022/05/19 07:23:46;;;;;;;2.42;1.33;;;20.00;99.90;;;;;;4373163;32;20954;-71
2022/05/19 07:26:11;;;;;;;0.62;0.60;;;20.10;99.90;;;;;;4376281;32;20510;-71
2022/05/19 07:28:37;;;;;;;0.30;0.30;;;20.20;99.90;;;;;;4372147;32;20220;-71
2022/05/19 07:31:03;;;;;;;4.03;0.95;;;20.30;99.90;;;;;;4358598;32;20089;-71
2022/05/19 07:33:28;;;;;;;0.60;0.60;;;20.40;99.90;;;;;;4349030;32;20479;-72
2022/05/19 07:35:55;;;;;;;0.40;0.40;;;20.60;99.90;;;;;;4327264;32;84636;-72
2022/05/19 07:38:21;;;;;;;0.45;0.45;;;20.70;99.90;;;;;;4363524;32;20461;-70
2022/05/19 07:40:49;;;;;;;9.95;0.77;;;20.80;99.90;;;;;;4367544;32;20069;-69
2022/05/19 07:43:46;;;;;;;11.60;1.55;;;20.90;99.90;;;;;;4382327;32;20253;-71
2022/05/19 07:46:00;;;;;;;4.65;0.98;;;21.00;99.90;;;;;;4366293;32;20104;-70
2022/05/19 07:48:26;;;;;;;1.33;0.70;;;21.30;99.90;;;;;;4368708;32;20224;-71
2022/05/19 07:50:52;;;;;;;0.65;0.52;;;21.30;99.90;;;;;;4349852;32;21352;-70
2022/05/19 07:53:17;;;;;;;0.90;0.80;;;21.40;99.90;;;;;;4361768;32;20504;-70
2022/05/19 07:55:43;;;;;;;0.30;0.30;;;21.50;99.40;;;;;;4374495;32;20195;-71
2022/05/19 07:58:08;;;;;;;0.50;0.50;;;21.50;99.50;;;;;;4375115;32;20093;-70
2022/05/19 08:00:34;;;;;;;0.93;0.70;;;21.70;99.50;;;;;;4363321;32;20166;-70
2022/05/19 08:03:00;;;;;;;1.35;0.50;;;21.90;99.10;;;;;;4356553;32;20350;-71
2022/05/19 08:05:26;;;;;;;1.37;1.00;;;22.00;99.20;;;;;;4349549;32;20109;-70
2022/05/19 08:07:51;;;;;;;0.30;0.30;;;22.20;99.30;;;;;;4363919;32;20101;-70
2022/05/19 08:10:24;;;;;;;0.82;0.68;;;22.30;99.20;;;;;;4357284;32;20236;-70
2022/05/19 08:15:40;;;;;;;0.47;0.47;;;22.50;98.30;;;;;;4356788;32;20200;-72
2022/05/19 08:18:12;;;;;;;0.43;0.43;;;22.60;97.70;;;;;;4374184;32;20377;-72
2022/05/19 08:20:43;;;;;;;1.40;0.85;;;22.70;96.90;;;;;;4359178;32;20869;-72
2022/05/19 08:23:13;;;;;;;0.30;0.30;;;22.80;96.90;;;;;;4364968;32;20375;-71
2022/05/19 08:25:39;;;;;;;;;;;22.90;96.50;;;;;;4364051;32;20110;-70
2022/05/19 08:28:06;;;;;;;2.42;1.17;;;23.00;96.60;;;;;;4367655;32;20794;-71
2022/05/19 08:30:32;;;;;;;0.32;0.32;;;23.00;96.40;;;;;;4344268;32;21262;-72
2022/05/19 08:32:57;;;;;;;0.45;0.45;;;23.10;96.20;;;;;;4336239;32;22007;-73
2022/05/19 08:35:24;;;;;;;0.45;0.45;;;23.20;96.20;;;;;;4329916;32;21647;-72
2022/05/19 08:37:50;;;;;;;1.48;0.85;;;23.40;95.90;;;;;;4353887;32;20118;-73
2022/05/19 08:40:18;;;;;;;3.60;1.80;;;23.50;95.60;;;;;;4352888;32;20424;-73
2022/05/19 08:42:48;;;;;;;0.65;0.52;;;23.50;95.40;;;;;;4363782;32;20085;-71
2022/05/19 08:45:20;;;;;;;1.27;1.17;;;23.50;95.50;;;;;;4360085;32;20113;-72
2022/05/19 08:47:48;;;;;;;0.32;0.32;;;23.70;96.20;;;;;;4355314;32;20145;-72
2022/05/19 08:50:37;;;;;;;1.98;0.90;;;23.90;95.40;;;;;;4342977;32;20796;-72
2022/05/19 08:53:03;;;;;;;0.37;0.37;;;24.10;95.30;;;;;;4351481;32;20161;-72
2022/05/19 08:55:29;;;;;;;0.60;0.60;;;24.30;95.30;;;;;;4350225;32;21831;-72
2022/05/19 08:58:06;;;;;;;0.90;0.65;;;24.40;95.30;;;;;;4369550;32;20081;-72
2022/05/19 09:00:37;;;;;;;5.55;0.73;;;24.50;94.40;;;;;;4355475;32;20094;-72
2022/05/19 09:03:35;;;;;;;0.73;0.57;;;24.40;93.40;;;;;;4348147;32;20231;-71
2022/05/19 09:06:23;;;;;;;0.47;0.47;;;24.40;93.60;;;;;;4343330;32;21174;-72
2022/05/19 09:09:07;;;;;;;0.57;0.50;;;24.50;93.60;;;;;;4364297;32;21059;-72
2022/05/19 09:11:41;;;;;;;0.30;0.30;;;24.60;93.60;;;;;;4368905;32;20208;-71
2022/05/19 09:14:28;;;;;;;1.42;1.12;;;24.60;93.80;;;;;;4377232;32;21408;-70
2022/05/19 09:16:57;;;;;;;0.35;0.35;;;24.70;93.60;;;;;;4354191;32;20096;-71
2022/05/19 09:19:30;;;;;;;0.15;0.15;;;24.80;93.30;;;;;;4359426;32;21079;-72
2022/05/19 09:22:03;;;;;;;0.35;0.35;;;24.90;92.20;;;;;;4353074;32;20741;-70
2022/05/19 09:24:29;;;;;;;0.70;0.70;;;24.90;92.80;;;;;;4360308;32;21102;-71
2022/05/19 09:26:56;;;;;;;0.45;0.30;;;25.10;93.20;;;;;;4365518;32;20343;-70
2022/05/19 09:29:43;;;;;;;1.00;0.73;;;25.40;92.20;;;;;;4357439;32;20084;-69
2022/05/19 09:32:17;;;;;;;0.25;0.25;;;25.60;92.50;;;;;;4338652;32;20413;-69
2022/05/19 09:34:47;;;;;;;10.02;1.00;;;25.60;91.50;;;;;;4335949;32;20374;-71
2022/05/19 09:37:37;;;;;;;1.17;0.93;;;25.70;91.60;;;;;;4353031;32;20268;-69
2022/05/19 09:40:11;;;;;;;;;;;25.90;91.30;;;;;;4359322;32;20109;-70
2022/05/19 09:42:58;;;;;;;0.60;0.37;;;26.20;91.20;;;;;;4362008;32;19969;-69
2022/05/19 09:45:27;;;;;;;0.32;0.32;;;26.10;90.80;;;;;;4379672;32;20093;-71
2022/05/19 09:47:57;;;;;;;0.55;0.43;;;26.20;90.10;;;;;;4361126;32;20824;-70
2022/05/19 09:50:25;;;;;;;;;;;26.30;90.70;;;;;;4348558;32;20082;-70
2022/05/19 09:52:58;;;;;;;0.20;0.20;;;26.40;89.80;;;;;;4355143;32;19986;-70
2022/05/19 09:55:24;;;;;;;0.75;0.60;;;26.30;89.20;;;;;;4363109;32;20085;-69
2022/05/19 09:57:52;;;;;;;0.98;0.60;;;26.40;90.30;;;;;;4370148;32;20931;-70
2022/05/19 10:00:26;;;;;;;12.25;1.52;;;26.40;89.20;;;;;;4356296;32;20914;-70
2022/05/19 10:02:55;;;;;;;0.70;0.70;;;26.50;90.00;;;;;;4350030;32;20114;-70
2022/05/19 10:05:25;;;;;;;0.52;0.52;;;26.50;89.10;;;;;;4341888;32;20889;-70
2022/05/19 10:07:58;;;;;;;0.30;0.30;;;26.60;88.80;;;;;;4363294;32;20893;-70
2022/05/19 10:10:28;;;;;;;0.20;0.20;;;26.90;90.10;;;;;;4361333;32;20077;-70
2022/05/19 10:13:02;;;;;;;0.52;0.50;;;27.20;87.80;;;;;;4372403;32;20260;-70
2022/05/19 10:15:41;;;;;;;0.65;0.65;;;27.30;86.10;;;;;;4365968;32;20728;-70
2022/05/19 10:18:37;;;;;;;0.60;0.60;;;27.40;86.80;;;;;;4360112;32;20398;-71
2022/05/19 10:21:15;;;;;;;0.30;0.30;;;27.70;86.50;;;;;;4340148;32;20077;-69
2022/05/19 10:23:58;;;;;;;0.17;0.17;;;27.80;84.10;;;;;;4363072;32;20109;-71
2022/05/19 10:26:44;;;;;;;0.30;0.30;;;27.90;83.90;;;;;;4369744;32;20896;-68
2022/05/19 10:31:18;;;;;;;0.22;0.22;;;27.90;83.40;;;;;;4362830;32;20104;-69
2022/05/19 10:32:38;;;;;;;0.28;0.28;;;27.60;82.40;;;;;;4335565;32;21912;-70
2022/05/19 10:35:21;;;;;;;0.37;0.37;;;27.60;82.30;;;;;;4349776;32;20371;-69
2022/05/19 10:37:53;;;;;;;4.75;3.12;;;27.60;82.10;;;;;;4374132;32;20174;-70
2022/05/19 10:40:37;;;;;;;0.47;0.47;;;27.50;82.60;;;;;;4381634;32;21593;-67
2022/05/19 10:43:24;;;;;;;4.25;0.65;;;27.80;83.50;;;;;;4382029;32;20235;-70
2022/05/19 10:45:52;;;;;;;0.30;0.30;;;28.40;84.30;;;;;;4362878;32;20607;-69
2022/05/19 10:48:41;;;;;;;0.20;0.20;;;28.70;80.30;;;;;;4344222;32;20113;-69
2022/05/19 10:51:12;;;;;;;7.70;0.28;;;28.90;80.20;;;;;;4336587;32;20236;-70
2022/05/19 10:53:46;;;;;;;1.65;0.93;;;29.30;81.90;;;;;;4340858;32;20533;-68
2022/05/19 10:56:18;;;;;;;0.37;0.37;;;29.10;78.30;;;;;;4327323;32;20386;-68
2022/05/19 10:58:58;;;;;;;0.30;0.30;;;29.10;79.30;;;;;;4349489;32;20101;-69
2022/05/19 11:02:00;;;;;;;0.25;0.25;;;29.20;79.30;;;;;;4338964;32;20257;-69
2022/05/19 11:04:36;;;;;;;0.93;0.65;;;29.10;77.70;;;;;;4319761;32;20251;-69
2022/05/19 11:07:09;;;;;;;0.32;0.28;;;29.00;78.40;;;;;;4350240;32;20205;-69
2022/05/19 11:09:57;;;;;;;0.20;0.20;;;29.00;78.30;;;;;;4361435;32;20129;-68
2022/05/19 11:12:37;;;;;;;0.20;0.20;;;29.10;78.20;;;;;;4358213;32;20844;-68
2022/05/19 11:15:28;;;;;;;0.30;0.30;;;29.10;78.10;;;;;;4370923;32;20361;-68
2022/05/19 11:18:01;;;;;;;0.25;0.22;;;29.30;77.00;;;;;;4363110;32;20098;-70
2022/05/19 11:20:37;;;;;;;1.25;0.37;;;29.20;76.90;;;;;;4349018;32;20094;-68
2022/05/19 11:23:11;;;;;;;0.13;0.13;;;29.30;76.30;;;;;;4362314;32;20614;-68
2022/05/19 11:26:45;;;;;;;0.70;0.50;;;29.20;76.80;;;;;;4358371;32;20646;-68
2022/05/19 11:28:54;;;;;;;0.20;0.20;;;29.10;76.80;;;;;;4348229;32;20947;-68
2022/05/19 11:31:46;;;;;;;0.20;0.20;;;28.90;77.40;;;;;;4344955;32;20263;-68
2022/05/19 11:34:21;;;;;;;0.35;0.30;;;28.70;77.20;;;;;;4324491;32;20094;-68
2022/05/19 11:36:57;;;;;;;0.30;0.30;;;28.60;78.10;;;;;;4363976;32;20519;-67
2022/05/19 11:39:33;;;;;;;0.98;0.60;;;28.60;77.40;;;;;;4372726;32;20480;-68
2022/05/19 11:42:18;;;;;;;0.43;0.40;;;28.50;77.40;;;;;;4332424;32;20571;-68
2022/05/19 11:44:46;;;;;;;3.03;0.95;;;28.40;78.50;;;;;;4319968;32;20265;-69
2022/05/19 11:55:12;;;;;;;1.65;0.95;;;28.60;78.70;;;;;;4319282;32;20330;-69
2022/05/19 11:55:19;;;;;;;0.88;0.55;;;29.00;77.90;;;;;;4343841;32;20102;-69
2022/05/19 11:56:03;;;;;;;0.07;0.07;;;29.30;77.10;;;;;;4340642;32;20363;-69
2022/05/19 11:58:34;;;;;;;0.35;0.35;;;30.00;74.40;;;;;;4361234;32;20085;-69
2022/05/19 12:01:04;;;;;;;0.80;0.60;;;30.40;73.20;;;;;;4358410;32;20987;-69
2022/05/19 12:03:50;;;;;;;;;;;30.80;72.80;;;;;;4318261;32;20265;-69
2022/05/19 12:06:26;;;;;;;0.55;0.22;;;31.20;71.40;;;;;;4354973;32;21207;-68
2022/05/19 12:09:00;;;;;;;0.15;0.15;;;31.50;71.30;;;;;;4384196;32;20118;-68
2022/05/19 12:11:48;;;;;;;0.37;0.37;;;31.80;69.10;;;;;;4371354;32;20741;-68
2022/05/19 12:14:33;;;;;;;2.20;0.55;;;31.90;68.50;;;;;;4350506;32;20435;-69
2022/05/19 12:17:01;;;;;;;0.88;0.57;;;32.20;69.60;;;;;;4348408;32;20266;-69
2022/05/19 12:19:33;;;;;;;0.28;0.28;;;31.50;67.20;;;;;;4369367;32;20138;-68
2022/05/19 12:22:01;;;;;;;0.28;0.25;;;31.50;67.80;;;;;;4378167;32;20766;-69
2022/05/19 12:24:31;;;;;;;0.40;0.40;;;31.90;68.40;;;;;;4364114;32;20659;-69
2022/05/19 12:27:01;;;;;;;0.25;0.25;;;32.00;66.40;;;;;;4361558;32;20976;-69
2022/05/19 12:29:43;;;;;;;0.20;0.20;;;32.10;65.60;;;;;;4371289;32;20573;-69
2022/05/19 12:32:22;;;;;;;0.37;0.35;;;32.20;66.60;;;;;;4346401;32;20727;-69
2022/05/19 12:34:59;;;;;;;0.32;0.30;;;32.20;66.50;;;;;;4337238;32;20216;-68
2022/05/19 12:37:34;;;;;;;0.10;0.10;;;32.40;65.60;;;;;;4361206;32;20114;-69
2022/05/19 12:40:22;;;;;;;0.30;0.22;;;32.30;67.20;;;;;;4372280;32;20603;-69
2022/05/19 12:42:49;;;;;;;0.20;0.20;;;32.70;63.30;;;;;;4358328;32;20410;-69
2022/05/19 12:45:18;;;;;;;0.57;0.52;;;32.90;63.60;;;;;;4339629;32;20239;-69
2022/05/19 12:48:21;;;;;;;0.30;0.30;;;33.30;63.00;;;;;;4357819;32;20303;-68
2022/05/19 12:50:52;;;;;;;0.45;0.45;;;32.70;62.80;;;;;;4373801;32;20404;-69
2022/05/19 12:53:28;;;;;;;0.10;0.10;;;32.80;63.90;;;;;;4357380;32;20804;-69
2022/05/19 12:55:56;;;;;;;3.05;1.15;;;32.90;62.60;;;;;;4381511;32;20593;-68
2022/05/19 12:58:47;;;;;;;0.15;0.15;;;32.90;61.80;;;;;;4363207;32;20519;-69
2022/05/19 13:01:26;;;;;;;1.35;0.75;;;32.70;62.00;;;;;;4372973;32;20219;-69
2022/05/19 13:04:20;;;;;;;0.10;0.10;;;32.60;63.00;;;;;;4333062;32;20291;-69
2022/05/19 13:06:59;;;;;;;0.30;0.30;;;32.50;63.40;;;;;;4362095;32;20278;-69
2022/05/19 13:09:30;;;;;;;0.20;0.20;;;32.70;60.70;;;;;;4388656;32;20601;-68
2022/05/19 13:12:04;;;;;;;0.20;0.20;;;32.80;61.40;;;;;;4386530;32;20393;-69
2022/05/19 13:14:38;;;;;;;0.60;0.50;;;32.90;60.50;;;;;;4359194;32;20118;-69